HST,Max TemperatureF,Mean TemperatureF,Min TemperatureF,Max Dew PointF,MeanDew PointF,Min DewpointF,Max Humidity, Mean Humidity, Min Humidity, Max Sea Level PressureIn, Mean Sea Level PressureIn, Min Sea Level PressureIn, Max VisibilityMiles, Mean VisibilityMiles, Min VisibilityMiles, Max Wind SpeedMPH, Mean Wind SpeedMPH, Max Gust SpeedMPH,PrecipitationIn, CloudCover, Events, WindDirDegrees
2013-3-1,81,75,69,61,57,51,66,55,45,30.11,30.06,30.01,10,10,10,15,9,17,0.00,5,Rain,122
2013-3-2,80,74,69,61,58,54,69,56,40,30.12,30.07,30.01,10,10,10,13,7,,0.00,5,,80
2013-3-3,81,74,68,62,58,55,70,58,48,30.12,30.08,30.04,10,10,10,15,5,16,0.00,2,,142
2013-3-4,80,73,66,62,59,56,70,60,48,30.14,30.09,30.05,10,10,10,15,5,,0.00,1,,48
2013-3-5,81,74,66,62,58,56,73,58,45,30.12,30.08,30.03,10,10,10,12,6,,0.00,2,,290
2013-3-6,80,74,69,63,58,52,65,57,49,30.12,30.07,30.04,10,10,10,12,6,,0.00,0,,169
2013-3-7,80,73,66,65,61,52,70,62,51,30.08,30.04,29.98,10,10,10,10,7,,0.00,4,,292
2013-3-8,80,73,66,65,62,57,70,65,54,30.03,29.97,29.90,10,10,10,15,5,20,0.00,3,,213
2013-3-9,82,75,68,66,61,54,71,61,48,29.97,29.93,29.88,10,10,10,25,11,31,0.00,1,,145
2013-3-10,82,76,70,70,65,55,83,66,54,30.02,29.95,29.88,10,10,10,23,12,31,0.00,3,,170
2013-3-11,81,75,69,67,64,61,81,70,58,30.06,30.00,29.96,10,10,8,12,6,,0.16,4,Rain,47
2013-3-12,79,75,70,67,65,62,84,73,58,30.05,30.01,29.97,10,10,10,15,5,,0.00,3,,9
2013-3-13,81,74,68,65,62,59,81,64,50,30.06,30.02,29.97,10,10,10,9,5,,0.00,1,,177
2013-3-14,81,76,70,66,63,59,73,65,58,30.06,30.02,29.98,10,10,10,10,6,,0.00,3,,175
2013-3-15,78,74,69,67,65,63,88,73,64,30.01,29.96,29.91,10,9,2,15,8,29,0.46,6,Rain,184
2013-3-16,75,73,71,65,60,56,78,64,53,30.01,29.96,29.92,10,10,10,14,8,,0.00,3,Rain,279
2013-3-17,78,74,70,61,58,55,68,58,48,30.02,29.98,29.93,10,10,10,13,6,,0.00,3,,309
2013-3-18,80,73,66,60,57,53,75,58,39,30.02,29.98,29.92,10,10,10,13,5,,0.00,1,,29
2013-3-19,81,72,64,62,58,53,70,58,45,30.02,29.98,29.94,10,10,10,12,6,,0.00,1,,342
2013-3-20,80,74,69,67,63,55,87,67,50,30.06,30.02,29.96,10,10,7,21,4,,0.01,6,Rain,122
2013-3-21,81,76,70,69,65,59,76,70,62,30.06,30.01,29.95,10,10,10,13,6,,0.00,1,,176
2013-3-22,81,76,72,68,66,62,76,70,62,30.05,29.99,29.93,10,10,10,14,8,,0.00,2,,22
2013-3-23,81,77,73,69,65,61,82,69,52,30.00,29.96,29.91,10,10,10,17,11,,0.00,5,,16
2013-3-24,81,76,71,68,66,63,87,74,56,30.03,29.96,29.91,10,10,10,16,9,,0.00,5,Rain,106
2013-3-25,81,76,70,69,65,62,78,68,58,30.01,29.96,29.91,10,10,10,14,9,,0.00,2,,274
2013-3-26,82,77,72,68,65,62,76,67,60,30.03,29.98,29.93,10,10,10,13,7,,0.00,1,,167
2013-3-27,82,77,72,68,65,59,76,67,50,30.01,29.97,29.92,10,10,10,15,7,,0.00,2,,194
2013-3-28,82,78,73,67,63,58,81,62,51,30.01,29.97,29.91,10,10,10,17,8,18,0.02,2,Rain,71
2013-3-29,82,76,70,66,62,58,69,62,52,30.03,29.99,29.95,10,10,10,14,5,,0.00,3,,196
2013-3-30,78,76,73,68,65,63,76,70,64,30.06,30.00,29.94,10,10,10,13,6,,0.00,5,Rain,320
2013-3-31,81,76,71,63,60,55,73,59,49,30.02,29.98,29.95,10,10,10,17,11,22,0.00,2,,340